CEB326 RPLL-RPVE
Flight info
| Callsign | CEB326 |
|---|---|
| Flight time | 0h 35m |
| Altitude | 23000 |
| Route | VERDE2V VERDE W24 TAPER TAPER7B |
| Aircraft | A320/M-SDE3FGHIRWY/LB1 |
Departure
| Time | 2026-04-25 09:21 |
|---|---|
| Airport | Ninoy Aquino International Airport (RPLL) |
Arrival
| Time | 2026-04-25 09:56 |
|---|---|
| Airport | Godofredo P. Ramos Airport (RPVE) |
| Time | Latitude | Longitude | Altitude | Speed | Heading |
|---|---|---|---|---|---|
| 2026-04-25 08:56 | 14.52199 | 121.01000 | 69 ft | 0 kts | 44° |
| 2026-04-25 09:05 | 14.52192 | 121.00993 | 63 ft | 2 kts | 44° |
| 2026-04-25 09:06 | 14.52180 | 121.00981 | 62 ft | 2 kts | 44° |
| 2026-04-25 09:06 | 14.52167 | 121.00968 | 66 ft | 2 kts | 44° |
| 2026-04-25 09:06 | 14.52155 | 121.00956 | 60 ft | 2 kts | 44° |
| 2026-04-25 09:06 | 14.52143 | 121.00943 | 62 ft | 2 kts | 44° |
| 2026-04-25 09:07 | 14.52129 | 121.00932 | 61 ft | 3 kts | 15° |
| 2026-04-25 09:07 | 14.52111 | 121.00930 | 65 ft | 3 kts | 340° |
| 2026-04-25 09:07 | 14.52100 | 121.00936 | 59 ft | 0 kts | 316° |
| 2026-04-25 09:10 | 14.52153 | 121.00873 | 63 ft | 17 kts | 308° |
| 2026-04-25 09:10 | 14.52168 | 121.00856 | 64 ft | 0 kts | 313° |
| 2026-04-25 09:12 | 14.52169 | 121.00854 | 64 ft | 3 kts | 313° |
| 2026-04-25 09:12 | 14.52232 | 121.00789 | 61 ft | 23 kts | 317° |
| 2026-04-25 09:12 | 14.52351 | 121.00668 | 63 ft | 23 kts | 314° |
| 2026-04-25 09:12 | 14.52455 | 121.00561 | 61 ft | 8 kts | 316° |
| 2026-04-25 09:13 | 14.52490 | 121.00522 | 64 ft | 7 kts | 302° |
| 2026-04-25 09:13 | 14.52479 | 121.00486 | 63 ft | 5 kts | 228° |
| 2026-04-25 09:13 | 14.52459 | 121.00463 | 67 ft | 4 kts | 227° |
| 2026-04-25 09:13 | 14.52449 | 121.00452 | 66 ft | 0 kts | 226° |
| 2026-04-25 09:14 | 14.52438 | 121.00441 | 60 ft | 0 kts | 225° |
| 2026-04-25 09:15 | 14.52437 | 121.00440 | 60 ft | 2 kts | 225° |
| 2026-04-25 09:16 | 14.52405 | 121.00406 | 59 ft | 8 kts | 225° |
| 2026-04-25 09:16 | 14.52362 | 121.00405 | 64 ft | 7 kts | 144° |
| 2026-04-25 09:16 | 14.52352 | 121.00414 | 66 ft | 0 kts | 136° |
| 2026-04-25 09:20 | 14.52345 | 121.00421 | 65 ft | 15 kts | 136° |
| 2026-04-25 09:20 | 14.52079 | 121.00698 | 65 ft | 89 kts | 134° |
| 2026-04-25 09:21 | 14.51506 | 121.01289 | 76 ft | 141 kts | 136° |
| 2026-04-25 09:21 | 14.50803 | 121.02017 | 678 ft | 143 kts | 130° |
| 2026-04-25 09:21 | 14.50112 | 121.02739 | 1386 ft | 143 kts | 131° |
| 2026-04-25 09:21 | 14.49405 | 121.03468 | 2017 ft | 148 kts | 131° |
| 2026-04-25 09:22 | 14.48627 | 121.04274 | 2346 ft | 169 kts | 132° |
| 2026-04-25 09:22 | 14.47744 | 121.05191 | 2612 ft | 192 kts | 132° |
| 2026-04-25 09:22 | 14.46736 | 121.06238 | 2932 ft | 218 kts | 133° |
| 2026-04-25 09:22 | 14.45609 | 121.07406 | 3315 ft | 242 kts | 133° |
| 2026-04-25 09:23 | 14.44356 | 121.08666 | 3860 ft | 259 kts | 139° |
| 2026-04-25 09:23 | 14.42710 | 121.09464 | 4605 ft | 270 kts | 170° |
| 2026-04-25 09:23 | 14.41457 | 121.09453 | 5096 ft | 275 kts | 189° |
| 2026-04-25 09:23 | 14.38932 | 121.08869 | 6189 ft | 281 kts | 193° |
| 2026-04-25 09:24 | 14.37665 | 121.08553 | 6697 ft | 284 kts | 194° |
| 2026-04-25 09:24 | 14.35739 | 121.08065 | 7475 ft | 287 kts | 194° |
| 2026-04-25 09:24 | 14.33785 | 121.07572 | 8269 ft | 291 kts | 194° |
| 2026-04-25 09:24 | 14.31806 | 121.07076 | 9062 ft | 294 kts | 194° |
| 2026-04-25 09:25 | 14.29123 | 121.06396 | 10086 ft | 299 kts | 198° |
| 2026-04-25 09:25 | 14.27837 | 121.05879 | 10530 ft | 302 kts | 207° |
| 2026-04-25 09:25 | 14.25985 | 121.04708 | 10768 ft | 324 kts | 215° |
| 2026-04-25 09:25 | 14.23420 | 121.02891 | 11148 ft | 347 kts | 216° |
| 2026-04-25 09:26 | 14.22070 | 121.01929 | 11540 ft | 352 kts | 216° |
| 2026-04-25 09:26 | 14.20044 | 121.00483 | 12214 ft | 355 kts | 216° |
| 2026-04-25 09:26 | 14.18005 | 120.99033 | 12873 ft | 358 kts | 215° |
| 2026-04-25 09:26 | 14.15941 | 120.97571 | 13535 ft | 361 kts | 215° |
| 2026-04-25 09:27 | 14.13865 | 120.96105 | 14147 ft | 363 kts | 215° |
| 2026-04-25 09:27 | 14.11794 | 120.94644 | 14724 ft | 366 kts | 215° |
| 2026-04-25 09:27 | 14.09682 | 120.93154 | 15280 ft | 370 kts | 215° |
| 2026-04-25 09:27 | 14.07508 | 120.91710 | 15833 ft | 374 kts | 208° |
| 2026-04-25 09:28 | 14.05079 | 120.90714 | 16366 ft | 379 kts | 196° |
| 2026-04-25 09:28 | 14.02458 | 120.90305 | 16884 ft | 384 kts | 183° |
| 2026-04-25 09:28 | 13.99779 | 120.90526 | 17414 ft | 389 kts | 169° |
| 2026-04-25 09:28 | 13.97130 | 120.91191 | 17925 ft | 393 kts | 167° |
| 2026-04-25 09:29 | 13.94470 | 120.91881 | 18405 ft | 396 kts | 167° |
| 2026-04-25 09:29 | 13.91794 | 120.92571 | 18867 ft | 397 kts | 168° |
| 2026-04-25 09:29 | 13.89104 | 120.93260 | 19332 ft | 399 kts | 168° |
| 2026-04-25 09:29 | 13.86401 | 120.93951 | 19791 ft | 401 kts | 167° |
| 2026-04-25 09:30 | 13.83684 | 120.94646 | 20246 ft | 403 kts | 168° |
| 2026-04-25 09:30 | 13.80955 | 120.95346 | 20694 ft | 405 kts | 167° |
| 2026-04-25 09:30 | 13.78213 | 120.96047 | 21138 ft | 407 kts | 168° |
| 2026-04-25 09:30 | 13.75453 | 120.96753 | 21581 ft | 409 kts | 168° |
| 2026-04-25 09:31 | 13.72678 | 120.97463 | 22003 ft | 412 kts | 167° |
| 2026-04-25 09:31 | 13.69893 | 120.98177 | 22423 ft | 414 kts | 167° |
| 2026-04-25 09:31 | 13.67128 | 120.98884 | 22786 ft | 416 kts | 167° |
| 2026-04-25 09:31 | 13.64312 | 120.99605 | 22883 ft | 417 kts | 167° |
| 2026-04-25 09:32 | 13.61490 | 121.00330 | 22899 ft | 418 kts | 167° |
| 2026-04-25 09:32 | 13.58666 | 121.01055 | 22899 ft | 418 kts | 167° |
| 2026-04-25 09:32 | 13.55846 | 121.01776 | 22902 ft | 418 kts | 167° |
| 2026-04-25 09:32 | 13.53028 | 121.02499 | 22904 ft | 418 kts | 166° |
| 2026-04-25 09:33 | 13.50283 | 121.03508 | 22909 ft | 420 kts | 156° |
| 2026-04-25 09:33 | 13.47750 | 121.05010 | 22910 ft | 422 kts | 147° |
| 2026-04-25 09:33 | 13.45335 | 121.06721 | 22908 ft | 422 kts | 147° |
| 2026-04-25 09:33 | 13.42911 | 121.08427 | 22912 ft | 422 kts | 147° |
| 2026-04-25 09:34 | 13.40487 | 121.10128 | 22911 ft | 422 kts | 147° |
| 2026-04-25 09:34 | 13.38061 | 121.11830 | 22912 ft | 422 kts | 147° |
| 2026-04-25 09:34 | 13.35636 | 121.13530 | 22916 ft | 422 kts | 147° |
| 2026-04-25 09:34 | 13.33211 | 121.15229 | 22918 ft | 422 kts | 147° |
| 2026-04-25 09:35 | 13.30816 | 121.16911 | 22916 ft | 422 kts | 147° |
| 2026-04-25 09:35 | 13.28389 | 121.18614 | 22919 ft | 422 kts | 147° |
| 2026-04-25 09:35 | 13.25961 | 121.20313 | 22913 ft | 423 kts | 147° |
| 2026-04-25 09:35 | 13.23531 | 121.22014 | 22918 ft | 423 kts | 147° |
| 2026-04-25 09:36 | 13.21104 | 121.23717 | 22916 ft | 423 kts | 147° |
| 2026-04-25 09:36 | 13.18679 | 121.25421 | 22916 ft | 423 kts | 147° |
| 2026-04-25 09:36 | 13.16254 | 121.27126 | 22921 ft | 423 kts | 147° |
| 2026-04-25 09:36 | 13.13829 | 121.28831 | 22925 ft | 423 kts | 147° |
| 2026-04-25 09:37 | 13.11401 | 121.30535 | 22925 ft | 423 kts | 147° |
| 2026-04-25 09:37 | 13.08974 | 121.32236 | 22926 ft | 423 kts | 147° |
| 2026-04-25 09:37 | 13.06542 | 121.33942 | 22920 ft | 423 kts | 147° |
| 2026-04-25 09:37 | 13.04112 | 121.35644 | 22919 ft | 423 kts | 147° |
| 2026-04-25 09:38 | 13.01682 | 121.37342 | 22915 ft | 423 kts | 147° |
| 2026-04-25 09:38 | 12.99281 | 121.39018 | 22915 ft | 423 kts | 147° |
| 2026-04-25 09:38 | 12.96850 | 121.40715 | 22916 ft | 423 kts | 147° |
| 2026-04-25 09:38 | 12.94421 | 121.42412 | 22913 ft | 423 kts | 147° |
| 2026-04-25 09:39 | 12.91990 | 121.44109 | 22907 ft | 423 kts | 147° |
| 2026-04-25 09:39 | 12.89557 | 121.45812 | 22905 ft | 423 kts | 147° |
| 2026-04-25 09:39 | 12.87131 | 121.47511 | 22904 ft | 423 kts | 147° |
| 2026-04-25 09:40 | 12.82273 | 121.50909 | 22894 ft | 423 kts | 147° |
| 2026-04-25 09:40 | 12.79841 | 121.52603 | 22896 ft | 423 kts | 147° |
| 2026-04-25 09:40 | 12.77406 | 121.54297 | 22895 ft | 423 kts | 147° |
| 2026-04-25 09:40 | 12.74972 | 121.55994 | 22895 ft | 423 kts | 147° |
| 2026-04-25 09:41 | 12.72541 | 121.57693 | 22896 ft | 423 kts | 147° |
| 2026-04-25 09:41 | 12.70132 | 121.59378 | 22682 ft | 414 kts | 146° |
| 2026-04-25 09:41 | 12.67770 | 121.61030 | 22413 ft | 407 kts | 147° |
| 2026-04-25 09:41 | 12.65450 | 121.62648 | 21962 ft | 402 kts | 147° |
| 2026-04-25 09:42 | 12.63152 | 121.64250 | 21482 ft | 398 kts | 147° |
| 2026-04-25 09:42 | 12.60873 | 121.65836 | 21000 ft | 394 kts | 146° |
| 2026-04-25 09:42 | 12.58611 | 121.67410 | 20530 ft | 392 kts | 146° |
| 2026-04-25 09:42 | 12.56362 | 121.68974 | 20040 ft | 390 kts | 146° |
| 2026-04-25 09:43 | 12.54125 | 121.70531 | 19553 ft | 388 kts | 146° |
| 2026-04-25 09:43 | 12.51925 | 121.72061 | 19059 ft | 387 kts | 146° |
| 2026-04-25 09:43 | 12.49697 | 121.73610 | 18558 ft | 387 kts | 145° |
| 2026-04-25 09:43 | 12.47471 | 121.75160 | 18031 ft | 386 kts | 145° |
| 2026-04-25 09:44 | 12.45253 | 121.76704 | 17494 ft | 385 kts | 145° |
| 2026-04-25 09:44 | 12.43044 | 121.78241 | 16989 ft | 383 kts | 146° |
| 2026-04-25 09:44 | 12.40850 | 121.79769 | 16479 ft | 381 kts | 146° |
| 2026-04-25 09:44 | 12.38667 | 121.81293 | 15992 ft | 379 kts | 146° |
| 2026-04-25 09:45 | 12.36411 | 121.82663 | 15476 ft | 377 kts | 155° |
| 2026-04-25 09:45 | 12.33942 | 121.83547 | 14977 ft | 375 kts | 164° |
| 2026-04-25 09:45 | 12.31438 | 121.84284 | 14469 ft | 374 kts | 164° |
| 2026-04-25 09:45 | 12.28936 | 121.85022 | 13961 ft | 373 kts | 164° |
| 2026-04-25 09:46 | 12.26669 | 121.85693 | 13521 ft | 371 kts | 164° |
| 2026-04-25 09:46 | 12.24271 | 121.86407 | 12946 ft | 356 kts | 163° |
| 2026-04-25 09:46 | 12.21947 | 121.87099 | 12452 ft | 340 kts | 163° |
| 2026-04-25 09:46 | 12.19718 | 121.87764 | 11970 ft | 327 kts | 163° |
| 2026-04-25 09:47 | 12.17571 | 121.88405 | 11504 ft | 316 kts | 163° |
| 2026-04-25 09:47 | 12.15480 | 121.89030 | 11046 ft | 312 kts | 162° |
| 2026-04-25 09:47 | 12.13400 | 121.89650 | 10587 ft | 311 kts | 162° |
| 2026-04-25 09:47 | 12.11344 | 121.90263 | 10183 ft | 302 kts | 162° |
| 2026-04-25 09:48 | 12.09351 | 121.90855 | 9785 ft | 295 kts | 162° |
| 2026-04-25 09:48 | 12.07363 | 121.91342 | 9660 ft | 295 kts | 174° |
| 2026-04-25 09:48 | 12.05321 | 121.91177 | 9526 ft | 297 kts | 194° |
| 2026-04-25 09:48 | 12.03454 | 121.90276 | 9402 ft | 299 kts | 215° |
| 2026-04-25 09:49 | 12.02007 | 121.88750 | 9263 ft | 302 kts | 233° |
| 2026-04-25 09:49 | 12.00795 | 121.87000 | 8889 ft | 302 kts | 234° |
| 2026-04-25 09:49 | 11.99592 | 121.85246 | 8472 ft | 302 kts | 234° |
| 2026-04-25 09:49 | 11.98390 | 121.83491 | 8054 ft | 302 kts | 234° |
| 2026-04-25 09:50 | 11.97185 | 121.81736 | 7639 ft | 302 kts | 233° |
| 2026-04-25 09:50 | 11.95993 | 121.80004 | 7196 ft | 302 kts | 233° |
| 2026-04-25 09:50 | 11.94785 | 121.78251 | 6811 ft | 302 kts | 233° |
| 2026-04-25 09:50 | 11.93573 | 121.76494 | 6369 ft | 303 kts | 233° |
| 2026-04-25 09:51 | 11.92244 | 121.74841 | 5926 ft | 299 kts | 216° |
| 2026-04-25 09:51 | 11.90395 | 121.74009 | 5508 ft | 289 kts | 183° |
| 2026-04-25 09:51 | 11.88467 | 121.74283 | 5075 ft | 278 kts | 151° |
| 2026-04-25 09:51 | 11.86833 | 121.75291 | 4664 ft | 274 kts | 144° |
| 2026-04-25 09:52 | 11.85176 | 121.76256 | 4242 ft | 273 kts | 143° |
| 2026-04-25 09:52 | 11.83957 | 121.77628 | 3835 ft | 255 kts | 110° |
| 2026-04-25 09:52 | 11.83800 | 121.79331 | 3479 ft | 237 kts | 76° |
| 2026-04-25 09:52 | 11.84424 | 121.80832 | 3175 ft | 225 kts | 62° |
| 2026-04-25 09:53 | 11.85231 | 121.82152 | 2869 ft | 214 kts | 58° |
| 2026-04-25 09:53 | 11.86027 | 121.83402 | 2574 ft | 206 kts | 59° |
| 2026-04-25 09:53 | 11.86765 | 121.84614 | 2287 ft | 194 kts | 61° |
| 2026-04-25 09:53 | 11.87438 | 121.85781 | 2027 ft | 188 kts | 61° |
| 2026-04-25 09:54 | 11.88071 | 121.86923 | 1799 ft | 177 kts | 61° |
| 2026-04-25 09:54 | 11.88636 | 121.87971 | 1573 ft | 161 kts | 62° |
| 2026-04-25 09:54 | 11.89147 | 121.88940 | 1362 ft | 148 kts | 62° |
| 2026-04-25 09:54 | 11.89612 | 121.89836 | 1156 ft | 139 kts | 62° |
| 2026-04-25 09:55 | 11.90057 | 121.90701 | 987 ft | 138 kts | 62° |
| 2026-04-25 09:55 | 11.90500 | 121.91562 | 793 ft | 136 kts | 62° |
| 2026-04-25 09:55 | 11.90934 | 121.92412 | 624 ft | 140 kts | 63° |
| 2026-04-25 09:55 | 11.91378 | 121.93283 | 417 ft | 138 kts | 62° |
| 2026-04-25 09:56 | 11.91827 | 121.94155 | 246 ft | 137 kts | 63° |
| 2026-04-25 09:56 | 11.92269 | 121.95012 | 57 ft | 136 kts | 63° |
| 2026-04-25 09:56 | 11.92646 | 121.95781 | 27 ft | 91 kts | 63° |
| 2026-04-25 09:56 | 11.92805 | 121.96098 | 32 ft | 26 kts | 63° |
| 2026-04-25 09:57 | 11.92889 | 121.96261 | 25 ft | 26 kts | 61° |
| 2026-04-25 09:57 | 11.92953 | 121.96385 | 24 ft | 16 kts | 66° |
| 2026-04-25 09:57 | 11.92960 | 121.96451 | 24 ft | 9 kts | 120° |
| 2026-04-25 09:57 | 11.92914 | 121.96482 | 27 ft | 6 kts | 152° |
| 2026-04-25 09:58 | 11.92865 | 121.96508 | 29 ft | 10 kts | 153° |
| 2026-04-25 09:58 | 11.92803 | 121.96519 | 26 ft | 8 kts | 198° |
| 2026-04-25 09:58 | 11.92776 | 121.96476 | 26 ft | 7 kts | 246° |
| 2026-04-25 09:58 | 11.92755 | 121.96436 | 26 ft | 6 kts | 243° |
| 2026-04-25 09:59 | 11.92738 | 121.96401 | 26 ft | 5 kts | 243° |
| 2026-04-25 09:59 | 11.92714 | 121.96395 | 26 ft | 3 kts | 169° |
| 2026-04-25 09:59 | 11.92696 | 121.96402 | 26 ft | 2 kts | 158° |
| 2026-04-25 09:59 | 11.92690 | 121.96405 | 26 ft | 0 kts | 154° |